Voyager Of The Seas — C6SE5 — position and weather

sailwx.info

Track history (hours):
 
Tides and Currents Weather Stations Pressure Air Temp Water Temp Dewpoint Dewpoint Depression Visibility Wind Speed Wind Dir Waves Ship Positions

Voyager Of The Seas

Operator: Royal Caribbean Cruises Ltd

Last reported at 2015-May-01 10:32 UTC. Time now 2015-May-05 00:11 UTC.
Position N 34°56' E 139°25'.

Type: Passenger vessel. MMSI: 311317000.

Date/timePositionNaut miles runAvg speedWind from/ knotsBaromVisibWave heightAir tempDewpointWater temp
2015-May-01 10:32N 34°56' E 139°25'2020.3
2015-May-01 09:33N 35°08' E 139°44'1211.9
2015-May-01 08:34N 35°20' E 139°43'8 7.7
2015-May-01 07:33N 35°28' E 139°41'0 0.0
2015-May-01 06:31N 35°28' E 139°41'0 0.0
2015-May-01 05:32N 35°28' E 139°41'0 0.0
2015-May-01 04:31N 35°28' E 139°41'0 0.0
2015-May-01 03:31N 35°28' E 139°41'0 0.0
2015-May-01 02:31N 35°28' E 139°41'0 0.0
2015-May-01 01:31N 35°28' E 139°41'0 0.0
2015-May-01 00:28N 35°28' E 139°41'0 0.0
2015-Apr-30 23:31N 35°28' E 139°41'0 0.0
2015-Apr-30 22:31N 35°28' E 139°41'0 0.0
2015-Apr-30 21:31N 35°28' E 139°41'1 1.2
2015-Apr-30 20:34N 35°27' E 139°43'8 7.7
2015-Apr-30 19:34N 35°20' E 139°44'1211.8
2015-Apr-30 18:33N 35°08' E 139°46'1514.8
2015-Apr-30 17:33N 34°54' E 139°39'  
2015-Apr-27 14:10N 33°40' E 129°49'1219.2
2015-Apr-27 13:33N 33°44' E 130°02'1514.9
2015-Apr-27 12:33N 33°39' E 130°19'5 4.6
2015-Apr-27 11:31N 33°37' E 130°24'0 0.0
2015-Apr-27 10:31N 33°37' E 130°24'0 0.0
2015-Apr-27 09:31N 33°37' E 130°24'0 0.0
2015-Apr-27 08:31N 33°37' E 130°24'0 0.0
2015-Apr-27 07:31N 33°37' E 130°24'0 0.0
2015-Apr-27 06:31N 33°37' E 130°24'0 0.0
2015-Apr-27 05:31N 33°37' E 130°24'6 6.1
2015-Apr-27 04:33N 33°39' E 130°17'1211.9
2015-Apr-27 03:33N 33°45' E 130°05'1312.9
2015-Apr-27 02:33N 33°40' E 129°51'47712.2
2015-Apr-25 11:26N 34°51' E 139°22'1719.3
2015-Apr-25 10:33N 35°02' E 139°37'1514.8
2015-Apr-25 09:33N 35°15' E 139°46'1212.0
2015-Apr-25 08:33N 35°27' E 139°47'8 7.7
2015-Apr-25 07:28N 35°36' E 139°47'0 0.0
2015-Apr-25 06:28N 35°36' E 139°47'0 0.0
2015-Apr-25 05:31N 35°36' E 139°47'0 0.0
2015-Apr-25 04:25N 35°36' E 139°47'0 0.0
2015-Apr-25 03:31N 35°36' E 139°47'0 0.0
2015-Apr-25 02:28N 35°36' E 139°47'0 0.0
2015-Apr-25 01:31N 35°36' E 139°47'0 0.0
2015-Apr-25 00:19N 35°36' E 139°47'0 0.0
2015-Apr-24 23:31N 35°36' E 139°47'1 1.1
2015-Apr-24 22:33N 35°35' E 139°48'10 9.7
2015-Apr-24 21:34N 35°25' E 139°48'1212.3
2015-Apr-24 20:33N 35°13' E 139°47'1211.5
2015-Apr-24 19:33N 35°02' E 139°44'  
2015-Apr-22 11:27N 30°34' E 127°09'1718.7
2015-Apr-22 10:32N 30°22' E 126°55'1818.5
2015-Apr-22 09:33N 30°10' E 126°40'1918.9
2015-Apr-22 08:33N 29°56' E 126°25'  
Track history (hours):
 
Tides and Currents Weather Stations Pressure Air Temp Water Temp Dewpoint Dewpoint Depression Visibility Wind Speed Wind Dir Waves Ship Positions

Voyager Of The Seas

Operator: Royal Caribbean Cruises Ltd

Last reported at 2015-May-01 10:32 UTC. Time now 2015-May-05 00:11 UTC.
Position N 34°56' E 139°25'.

Type: Passenger vessel. MMSI: 311317000.

Date/timePositionNaut miles runAvg speedWind from/ knotsBaromVisibWave heightAir tempDewpointWater temp
2015-May-01 10:32N 34°56' E 139°25'2020.3
2015-May-01 09:33N 35°08' E 139°44'1211.9
2015-May-01 08:34N 35°20' E 139°43'8 7.7
2015-May-01 07:33N 35°28' E 139°41'0 0.0
2015-May-01 06:31N 35°28' E 139°41'0 0.0
2015-May-01 05:32N 35°28' E 139°41'0 0.0
2015-May-01 04:31N 35°28' E 139°41'0 0.0
2015-May-01 03:31N 35°28' E 139°41'0 0.0
2015-May-01 02:31N 35°28' E 139°41'0 0.0
2015-May-01 01:31N 35°28' E 139°41'0 0.0
2015-May-01 00:28N 35°28' E 139°41'0 0.0
2015-Apr-30 23:31N 35°28' E 139°41'0 0.0
2015-Apr-30 22:31N 35°28' E 139°41'0 0.0
2015-Apr-30 21:31N 35°28' E 139°41'1 1.2
2015-Apr-30 20:34N 35°27' E 139°43'8 7.7
2015-Apr-30 19:34N 35°20' E 139°44'1211.8
2015-Apr-30 18:33N 35°08' E 139°46'1514.8
2015-Apr-30 17:33N 34°54' E 139°39'  
2015-Apr-27 14:10N 33°40' E 129°49'1219.2
2015-Apr-27 13:33N 33°44' E 130°02'1514.9
2015-Apr-27 12:33N 33°39' E 130°19'5 4.6
2015-Apr-27 11:31N 33°37' E 130°24'0 0.0
2015-Apr-27 10:31N 33°37' E 130°24'0 0.0
2015-Apr-27 09:31N 33°37' E 130°24'0 0.0
2015-Apr-27 08:31N 33°37' E 130°24'0 0.0
2015-Apr-27 07:31N 33°37' E 130°24'0 0.0
2015-Apr-27 06:31N 33°37' E 130°24'0 0.0
2015-Apr-27 05:31N 33°37' E 130°24'6 6.1
2015-Apr-27 04:33N 33°39' E 130°17'1211.9
2015-Apr-27 03:33N 33°45' E 130°05'1312.9
2015-Apr-27 02:33N 33°40' E 129°51'47712.2
2015-Apr-25 11:26N 34°51' E 139°22'1719.3
2015-Apr-25 10:33N 35°02' E 139°37'1514.8
2015-Apr-25 09:33N 35°15' E 139°46'1212.0
2015-Apr-25 08:33N 35°27' E 139°47'8 7.7
2015-Apr-25 07:28N 35°36' E 139°47'0 0.0
2015-Apr-25 06:28N 35°36' E 139°47'0 0.0
2015-Apr-25 05:31N 35°36' E 139°47'0 0.0
2015-Apr-25 04:25N 35°36' E 139°47'0 0.0
2015-Apr-25 03:31N 35°36' E 139°47'0 0.0
2015-Apr-25 02:28N 35°36' E 139°47'0 0.0
2015-Apr-25 01:31N 35°36' E 139°47'0 0.0
2015-Apr-25 00:19N 35°36' E 139°47'0 0.0
2015-Apr-24 23:31N 35°36' E 139°47'1 1.1
2015-Apr-24 22:33N 35°35' E 139°48'10 9.7
2015-Apr-24 21:34N 35°25' E 139°48'1212.3
2015-Apr-24 20:33N 35°13' E 139°47'1211.5
2015-Apr-24 19:33N 35°02' E 139°44'  
2015-Apr-22 11:27N 30°34' E 127°09'1718.7
2015-Apr-22 10:32N 30°22' E 126°55'1818.5
2015-Apr-22 09:33N 30°10' E 126°40'1918.9
2015-Apr-22 08:33N 29°56' E 126°25'  

Dump ship's entire track history